Weather at Ioannina Airport

Public forecast

Using degrees Celsius for public forecast. Weather courtesy of forecast.io.

Current aviation weather report (METAR) for Ioannina Airport

Retrieved 2022/01/17 09:50 UTC (14 minutes ago):

LGIO 170950Z 12002KT 9999 BKN030 06/00 Q1023

Closest aviation forecast (TAF) to Ioannina Airport

Closest forecast is Ioannis Kapodistrias International Airport, 42.5 nm (78.7 km) W. Retrieved 2022/01/17 06:11 UTC (4 hours ago):

TAF LGKR 170500Z 1706/1806 VRB05KT 9999 SCT030 TEMPO 1706/1709 12010KT BKN030 BECMG 1713/1715 33012KT SCT080 TEMPO 1716/1724 33013G23KT PROB30 TEMPO 1709/1718 5000 RA SCT012 BKN025 BKN080